createdAt,value
2023-02-19T00:03:41.348Z,99.08
2023-02-19T00:07:52.904Z,98.85
2023-02-19T00:12:04.596Z,98.84
2023-02-19T00:16:17.277Z,98.86
2023-02-19T00:20:28.999Z,98.83
2023-02-19T00:24:40.563Z,99.37
2023-02-19T00:28:53.470Z,99.45
2023-02-19T00:33:05.179Z,99.27
2023-02-19T00:37:17.150Z,99.78
2023-02-19T00:41:29.040Z,99.51
2023-02-19T00:45:40.632Z,99.55
2023-02-19T00:49:52.223Z,99.45
2023-02-19T00:54:05.338Z,99.66
2023-02-19T00:58:16.988Z,99.74
2023-02-19T01:02:28.852Z,99.98
2023-02-19T01:06:41.374Z,99.87
2023-02-19T01:10:53.491Z,99.69
2023-02-19T01:15:05.316Z,100.00
2023-02-19T01:19:17.036Z,100.00
2023-02-19T01:23:28.601Z,100.00
2023-02-19T01:27:40.167Z,100.00
2023-02-19T01:31:51.809Z,100.00
2023-02-19T01:36:04.851Z,100.00
2023-02-19T01:40:17.980Z,100.00
2023-02-19T01:44:29.472Z,100.00
2023-02-19T01:48:41.400Z,100.00
2023-02-19T01:52:53.030Z,100.00
2023-02-19T01:57:09.287Z,100.00
2023-02-19T02:01:20.942Z,99.96
2023-02-19T02:05:44.260Z,100.00
2023-02-19T02:10:15.020Z,100.00
2023-02-19T02:14:31.248Z,99.83
2023-02-19T02:18:45.811Z,99.70
2023-02-19T02:23:07.278Z,99.87
2023-02-19T02:27:35.148Z,99.97
2023-02-19T02:31:57.056Z,100.00
2023-02-19T02:36:22.034Z,99.70
2023-02-19T02:40:34.746Z,99.73
2023-02-19T02:45:05.091Z,99.74
2023-02-19T02:49:23.597Z,99.86
2023-02-19T02:54:02.058Z,99.65
2023-02-19T02:58:15.399Z,99.59
2023-02-19T03:02:31.351Z,99.86
2023-02-19T03:06:47.521Z,99.91
2023-02-19T03:11:31.187Z,99.78
2023-02-19T03:16:09.342Z,99.62
2023-02-19T03:20:23.883Z,99.81
2023-02-19T03:24:59.897Z,99.96
2023-02-19T03:29:26.208Z,99.96
2023-02-19T03:33:50.406Z,99.82
2023-02-19T03:38:18.765Z,100.00
2023-02-19T03:42:39.992Z,99.67
2023-02-19T03:46:56.920Z,99.73
2023-02-19T03:51:32.907Z,99.92
2023-02-19T03:56:06.710Z,100.00
2023-02-19T04:00:38.478Z,100.00
2023-02-19T04:04:56.351Z,99.70
2023-02-19T04:09:12.412Z,99.64
2023-02-19T04:13:39.399Z,99.90
2023-02-19T04:17:57.229Z,99.64
2023-02-19T04:22:10.816Z,99.93
2023-02-19T04:26:22.960Z,99.99
2023-02-19T04:30:34.594Z,99.77
2023-02-19T04:34:46.258Z,99.90
2023-02-19T04:38:57.969Z,99.82
2023-02-19T04:43:09.560Z,99.96
2023-02-19T04:47:21.155Z,99.76
2023-02-19T04:51:32.673Z,100.00
2023-02-19T04:55:44.332Z,99.95
2023-02-19T04:59:55.989Z,99.76
2023-02-19T05:04:07.746Z,99.63
2023-02-19T05:08:19.824Z,99.77
2023-02-19T05:12:31.661Z,99.63
2023-02-19T05:16:43.200Z,99.72
2023-02-19T05:20:54.761Z,99.79
2023-02-19T05:25:06.522Z,99.82
2023-02-19T05:29:18.147Z,99.59
2023-02-19T05:33:29.780Z,99.80
2023-02-19T05:37:41.333Z,99.85
2023-02-19T05:41:52.849Z,99.82
2023-02-19T05:46:05.003Z,99.69
2023-02-19T05:50:16.691Z,99.43
2023-02-19T05:54:29.305Z,99.28
2023-02-19T05:58:40.869Z,99.04
2023-02-19T06:02:53.049Z,99.04
2023-02-19T06:07:04.571Z,98.87
2023-02-19T06:11:17.161Z,98.69
2023-02-19T06:15:29.897Z,98.69
2023-02-19T06:19:41.583Z,98.88
2023-02-19T06:23:54.579Z,98.96
2023-02-19T06:28:59.732Z,99.06
2023-02-19T06:33:11.249Z,99.03
2023-02-19T06:37:22.838Z,98.90
2023-02-19T06:41:34.446Z,98.60
2023-02-19T06:45:46.080Z,99.28
2023-02-19T06:49:57.779Z,99.17
2023-02-19T06:54:09.367Z,98.78
2023-02-19T06:58:20.867Z,98.79
2023-02-19T07:02:32.458Z,98.77
2023-02-19T07:06:44.069Z,98.72
2023-02-19T07:10:57.521Z,98.54
2023-02-19T07:15:10.010Z,98.77
2023-02-19T07:19:21.568Z,98.42
2023-02-19T07:23:33.168Z,98.53
2023-02-19T07:27:44.679Z,98.66
2023-02-19T07:31:56.343Z,98.32
2023-02-19T07:36:08.507Z,98.49
2023-02-19T07:40:20.030Z,98.36
2023-02-19T07:44:31.622Z,98.71
2023-02-19T07:48:44.281Z,98.57
2023-02-19T07:52:55.847Z,98.52
2023-02-19T07:57:07.421Z,98.52
2023-02-19T08:01:40.469Z,98.47
2023-02-19T08:05:53.823Z,98.39
2023-02-19T08:10:24.481Z,98.38
2023-02-19T08:14:36.086Z,98.58
2023-02-19T08:18:48.689Z,98.42
2023-02-19T08:23:00.171Z,98.21
2023-02-19T08:27:11.644Z,97.99
2023-02-19T08:31:23.258Z,97.82
2023-02-19T08:35:36.587Z,97.71
2023-02-19T08:39:48.086Z,97.44
2023-02-19T09:42:23.943Z,93.94
2023-02-19T09:46:50.155Z,93.67
2023-02-19T09:51:02.877Z,93.55
2023-02-19T10:13:31.346Z,91.85
2023-02-19T10:17:42.981Z,90.81
2023-02-19T10:21:56.611Z,90.32
2023-02-19T10:26:08.415Z,89.38
2023-02-19T10:30:24.454Z,89.39
2023-02-19T10:34:36.086Z,89.18
2023-02-19T10:38:48.109Z,89.21
2023-02-19T10:43:04.154Z,89.39
2023-02-19T10:47:19.178Z,89.68
2023-02-19T10:51:39.842Z,90.03
2023-02-19T10:56:12.896Z,90.33
2023-02-19T11:00:27.461Z,90.27
2023-02-19T11:04:39.133Z,90.52
2023-02-19T11:08:54.561Z,90.30
2023-02-19T11:13:12.331Z,89.87
2023-02-19T11:17:30.406Z,90.12
2023-02-19T11:21:42.011Z,89.96
2023-02-19T11:25:56.410Z,90.25
2023-02-19T11:30:30.033Z,89.90
2023-02-19T11:34:41.958Z,90.30
2023-02-19T11:38:54.718Z,90.46
2023-02-19T11:43:30.259Z,90.40
2023-02-19T11:48:12.663Z,90.26
2023-02-19T11:52:38.211Z,89.21
2023-02-19T11:57:02.477Z,88.75
2023-02-19T12:01:29.514Z,88.06
2023-02-19T12:06:09.825Z,87.46
2023-02-19T12:10:46.403Z,87.62
2023-02-19T12:15:23.407Z,87.21
2023-02-19T12:19:47.044Z,87.38
2023-02-19T12:24:20.718Z,87.46
2023-02-19T12:28:38.360Z,87.73
2023-02-19T12:33:04.538Z,88.05
2023-02-19T12:37:38.821Z,88.19
2023-02-19T12:42:03.542Z,88.21
2023-02-19T12:46:37.918Z,88.47
2023-02-19T12:50:56.868Z,88.83
2023-02-19T12:55:30.612Z,88.58
2023-02-19T13:00:07.421Z,89.13
2023-02-19T13:04:36.806Z,89.06
2023-02-19T13:09:06.290Z,88.84
2023-02-19T13:13:30.143Z,88.23
2023-02-19T13:17:47.383Z,88.32
2023-02-19T13:22:52.944Z,88.38
2023-02-19T13:27:04.447Z,88.39
2023-02-19T13:31:31.801Z,88.58
2023-02-19T13:36:00.548Z,88.41
2023-02-19T13:40:26.699Z,88.48
2023-02-19T13:44:40.852Z,88.67
2023-02-19T13:49:23.597Z,89.02
2023-02-19T13:53:42.068Z,88.54
2023-02-19T13:57:53.662Z,88.61
2023-02-19T14:02:09.670Z,88.73
2023-02-19T14:06:21.369Z,88.39
2023-02-19T14:10:51.752Z,88.05
2023-02-19T14:15:25.360Z,88.29
2023-02-19T14:19:42.962Z,88.57
2023-02-19T14:23:58.439Z,88.34
2023-02-19T14:28:09.931Z,88.01
2023-02-19T14:32:21.711Z,87.78
2023-02-19T14:36:45.184Z,87.54
2023-02-19T14:40:57.547Z,87.59
2023-02-19T14:45:09.783Z,87.69
2023-02-19T14:49:30.097Z,87.51
2023-02-19T14:53:44.700Z,87.27
2023-02-19T14:57:59.700Z,87.23
2023-02-19T15:02:21.076Z,86.63
2023-02-19T15:06:35.162Z,86.60
2023-02-19T15:10:47.122Z,86.23
2023-02-19T15:15:02.879Z,86.13
2023-02-19T15:19:17.064Z,85.81
2023-02-19T15:23:30.693Z,85.86
2023-02-19T15:27:42.208Z,86.02
2023-02-19T15:31:56.950Z,86.29
2023-02-19T15:36:09.768Z,86.00
2023-02-19T15:40:26.706Z,86.17
2023-02-19T15:44:46.106Z,85.79
2023-02-19T15:49:15.411Z,86.18
2023-02-19T15:53:30.749Z,86.38
2023-02-19T15:57:47.242Z,86.64
2023-02-19T16:02:00.640Z,86.50
2023-02-19T16:06:14.966Z,86.38
2023-02-19T16:10:26.488Z,86.73
2023-02-19T16:14:37.987Z,86.70
2023-02-19T16:18:51.587Z,86.48
2023-02-19T16:23:14.635Z,86.48
2023-02-19T16:27:36.441Z,86.41
2023-02-19T16:31:54.241Z,86.60
2023-02-19T16:36:26.443Z,86.57
2023-02-19T16:40:54.268Z,86.41
2023-02-19T16:45:07.959Z,86.37
2023-02-19T16:49:20.891Z,86.45
2023-02-19T16:53:33.292Z,86.44
2023-02-19T16:57:44.960Z,86.78
2023-02-19T17:01:56.567Z,86.76
2023-02-19T17:06:08.196Z,86.73
2023-02-19T17:10:23.003Z,86.86
2023-02-19T17:14:34.443Z,87.28
2023-02-19T17:18:45.964Z,87.11
2023-02-19T17:22:57.544Z,86.97
2023-02-19T17:27:13.075Z,87.10
2023-02-19T17:31:24.660Z,87.21
2023-02-19T17:35:36.244Z,87.47
2023-02-19T17:39:49.020Z,87.51
2023-02-19T17:44:00.577Z,87.92
2023-02-19T17:48:13.860Z,87.79
2023-02-19T17:52:25.387Z,88.06
2023-02-19T17:56:37.175Z,88.24
2023-02-19T18:00:48.678Z,88.16
2023-02-19T18:05:00.232Z,88.33
2023-02-19T18:09:15.164Z,88.43
2023-02-19T18:13:26.740Z,88.26
2023-02-19T18:17:38.234Z,88.27
2023-02-19T18:21:49.752Z,88.35
2023-02-19T18:26:01.327Z,88.30
2023-02-19T18:30:16.669Z,88.32
2023-02-19T18:34:28.226Z,88.15
2023-02-19T18:38:39.968Z,88.39
2023-02-19T18:42:51.859Z,87.94
2023-02-19T18:47:03.564Z,87.93
2023-02-19T18:51:15.088Z,87.74
2023-02-19T18:55:26.712Z,87.66
2023-02-19T18:59:40.186Z,87.56
2023-02-19T19:03:51.723Z,87.08
2023-02-19T19:08:03.402Z,87.10
2023-02-19T19:12:16.416Z,86.84
2023-02-19T19:16:29.087Z,86.71
2023-02-19T19:20:40.584Z,86.74
2023-02-19T19:24:52.272Z,86.71
2023-02-19T19:29:04.324Z,86.29
2023-02-19T19:33:17.731Z,86.21
2023-02-19T19:37:29.722Z,86.22
2023-02-19T19:41:41.293Z,86.08
2023-02-19T19:45:52.897Z,86.01
2023-02-19T19:50:04.697Z,86.26
2023-02-19T19:54:16.344Z,86.31
2023-02-19T19:58:28.238Z,86.54
2023-02-19T20:02:40.028Z,86.60
2023-02-19T20:06:53.424Z,86.87
2023-02-19T20:11:05.105Z,87.27
2023-02-19T20:15:21.942Z,87.04
2023-02-19T20:19:33.454Z,87.35
2023-02-19T20:23:45.010Z,87.66
2023-02-19T20:27:56.566Z,88.02
2023-02-19T20:32:08.066Z,87.91
2023-02-19T20:36:20.259Z,87.84
2023-02-19T20:40:32.756Z,88.33
2023-02-19T20:44:44.380Z,88.55
2023-02-19T20:48:56.588Z,88.25
2023-02-19T20:53:08.179Z,88.67
2023-02-19T20:57:19.623Z,88.52
2023-02-19T21:01:31.191Z,88.96
2023-02-19T21:05:42.938Z,88.78
2023-02-19T21:09:54.927Z,88.88
2023-02-19T21:14:06.461Z,88.90
2023-02-19T21:18:19.847Z,88.80
2023-02-19T21:22:31.293Z,88.75
2023-02-19T21:26:44.100Z,88.82
2023-02-19T21:30:55.717Z,88.90
2023-02-19T21:35:07.573Z,88.67
2023-02-19T21:39:20.934Z,89.34
2023-02-19T21:43:32.460Z,89.33
2023-02-19T21:47:43.989Z,89.27
2023-02-19T21:51:55.496Z,89.38
2023-02-19T21:56:07.115Z,89.41
2023-02-19T22:00:18.882Z,89.70
2023-02-19T22:04:30.473Z,89.88
2023-02-19T22:08:42.016Z,89.60
2023-02-19T22:12:53.537Z,89.67
2023-02-19T22:17:05.112Z,89.67
2023-02-19T22:21:17.391Z,89.68
2023-02-19T22:25:28.868Z,89.83
2023-02-19T22:29:40.392Z,89.68
2023-02-19T22:33:53.384Z,89.70
2023-02-19T22:38:04.906Z,89.79
2023-02-19T22:42:16.726Z,90.17
2023-02-19T22:46:30.376Z,89.95
2023-02-19T22:50:41.892Z,90.19
2023-02-19T22:54:56.757Z,90.39
2023-02-19T22:59:08.307Z,90.54
2023-02-19T23:03:19.826Z,90.32
2023-02-19T23:07:31.295Z,90.41
2023-02-19T23:11:42.885Z,90.97
2023-02-19T23:15:54.386Z,91.17
2023-02-19T23:20:06.640Z,91.14
2023-02-19T23:24:18.277Z,91.32
2023-02-19T23:28:30.054Z,91.47
2023-02-19T23:32:41.560Z,91.73
2023-02-19T23:36:54.111Z,91.80
2023-02-19T23:41:10.661Z,91.81
2023-02-19T23:45:23.064Z,92.20
2023-02-19T23:49:34.563Z,92.42
2023-02-19T23:53:46.034Z,92.55
2023-02-19T23:57:57.633Z,92.31
